Time;durP1;ratioP1;P1;durP2;ratioP2;P2;SDS_P1;SDS_P2;PMS_P1;PMS_P2;Temp;Humidity;BMP_temperature;BMP_pressure;BME280_temperature;BME280_humidity;BME280_pressure;Samples;Min_cycle;Max_cycle;Signal;HPM_P1;HPM_P2
2022/02/04 00:23:37;;;;;;;;;;;2.20;99.90;;;;;;4933168;28;20473;-66
2022/02/04 00:26:23;;;;;;;;;;;2.20;99.90;;;;;;4933157;28;20236;-66
2022/02/04 00:31:37;;;;;;;;;;;2.20;99.90;;;;;;4938476;28;20001;-66
2022/02/04 00:34:08;;;;;;;;;;;2.20;99.90;;;;;;4936308;28;19992;-64
2022/02/04 00:39:07;;;;;;;;;;;2.20;99.90;;;;;;4932702;28;19933;-66
2022/02/04 00:41:37;;;;;;;;;;;2.20;99.90;;;;;;4935234;28;19934;-63
2022/02/04 00:44:06;;;;;;;;;;;2.20;99.90;;;;;;4936485;28;19942;-72
2022/02/04 00:46:57;;;;;;;;;;;2.20;99.90;;;;;;4936231;28;19938;-64
2022/02/04 00:49:47;;;;;;;;;;;2.30;99.90;;;;;;4933786;28;20898;-66
2022/02/04 00:55:15;;;;;;;;;;;2.30;99.90;;;;;;4934320;28;19945;-68
2022/02/04 01:28:05;;;;;;;;;;;2.30;99.90;;;;;;4925793;28;19930;-64
2022/02/04 01:30:34;;;;;;;;;;;2.20;99.90;;;;;;4926655;28;19973;-66
2022/02/04 01:33:03;;;;;;;;;;;2.30;99.90;;;;;;4931041;28;19930;-61
2022/02/04 01:35:30;;;;;;;;;;;2.30;99.90;;;;;;4934677;28;20044;-62
2022/02/04 01:37:57;;;;;;;;;;;2.30;99.90;;;;;;4938737;28;20002;-66
2022/02/04 01:40:23;;;;;;;;;;;2.30;99.90;;;;;;4936083;28;20386;-67
2022/02/04 01:42:50;;;;;;;;;;;2.30;99.90;;;;;;4880668;28;19926;-63
2022/02/04 01:45:33;;;;;;;;;;;2.30;99.90;;;;;;2823088;28;10001826;-66
2022/02/04 01:47:59;;;;;;;;;;;2.30;99.90;;;;;;3570871;28;10001752;-64
2022/02/04 01:50:27;;;;;;;;;;;2.30;99.90;;;;;;4939755;28;20368;-63
2022/02/04 01:52:55;;;;;;;;;;;2.30;99.90;;;;;;4932827;28;20391;-69
2022/02/04 01:55:22;;;;;;;;;;;2.30;99.90;;;;;;4932578;28;19930;-65
2022/02/04 01:57:50;;;;;;;;;;;2.30;99.90;;;;;;4936355;28;20026;-68
2022/02/04 02:00:17;;;;;;;;;;;2.30;99.90;;;;;;4938129;28;19937;-63
2022/02/04 02:02:44;;;;;;;;;;;2.30;99.90;;;;;;4932643;28;19931;-66
2022/02/04 02:05:11;;;;;;;;;;;2.40;99.90;;;;;;4936534;28;19957;-67
2022/02/04 02:07:44;;;;;;;;;;;2.30;99.90;;;;;;4934042;28;19930;-69
2022/02/04 02:10:13;;;;;;;;;;;2.40;99.90;;;;;;4933604;28;19997;-67
2022/02/04 02:56:15;;;;;;;;;;;2.50;99.90;;;;;;4934654;28;20005;-67
2022/02/04 02:58:44;;;;;;;;;;;2.50;99.90;;;;;;4936102;28;19930;-67
2022/02/04 03:01:11;;;;;;;;;;;2.60;99.90;;;;;;4935157;28;20025;-69
2022/02/04 03:03:38;;;;;;;;;;;2.60;99.90;;;;;;4937349;28;19930;-73
2022/02/04 03:06:06;;;;;;;;;;;2.60;99.90;;;;;;4936966;28;20111;-69
2022/02/04 03:08:33;;;;;;;;;;;2.60;99.90;;;;;;4935224;28;19926;-72
2022/02/04 03:11:00;;;;;;;;;;;2.60;99.90;;;;;;4935074;28;19930;-62
2022/02/04 03:13:27;;;;;;;;;;;2.60;99.90;;;;;;4935772;28;19952;-67
2022/02/04 03:16:03;;;;;;;;;;;2.70;99.90;;;;;;4935882;28;20441;-63
2022/02/04 03:18:34;;;;;;;;;;;2.60;99.90;;;;;;4935973;28;20045;-69
2022/02/04 03:21:08;;;;;;;;;;;2.70;99.90;;;;;;4933109;28;20693;-65
2022/02/04 03:23:38;;;;;;;;;;;2.70;99.90;;;;;;4931953;28;20065;-69
2022/02/04 03:26:13;;;;;;;;;;;2.70;99.90;;;;;;4936511;28;19940;-70
2022/02/04 03:28:40;;;;;;;;;;;2.70;99.90;;;;;;4936769;28;20034;-66
2022/02/04 03:31:08;;;;;;;;;;;2.70;99.90;;;;;;4933352;28;20400;-65
2022/02/04 03:33:35;;;;;;;;;;;2.70;99.90;;;;;;4934797;28;20013;-69
2022/02/04 03:36:03;;;;;;;;;;;2.80;99.90;;;;;;4934847;28;20025;-67
2022/02/04 03:38:30;;;;;;;;;;;2.70;99.90;;;;;;4934248;28;20329;-67
2022/02/04 03:40:56;;;;;;;;;;;2.80;99.90;;;;;;4932188;28;20348;-69
2022/02/04 03:43:24;;;;;;;;;;;2.80;99.90;;;;;;4853177;28;20008;-62
2022/02/04 03:45:51;;;;;;;;;;;2.70;99.90;;;;;;962064;28;10001995;-69
2022/02/04 03:48:18;;;;;;;;;;;2.70;99.90;;;;;;4926968;28;20514;-67
2022/02/04 03:50:44;;;;;;;;;;;2.80;99.90;;;;;;4930101;28;19933;-66
2022/02/04 03:53:12;;;;;;;;;;;2.80;99.90;;;;;;4931070;28;19940;-67
2022/02/04 03:55:39;;;;;;;;;;;2.80;99.90;;;;;;4932808;28;19930;-68
2022/02/04 03:58:06;;;;;;;;;;;2.80;99.90;;;;;;4934344;28;19937;-64
2022/02/04 04:00:33;;;;;;;;;;;2.80;99.90;;;;;;4935648;28;20317;-68
2022/02/04 04:03:00;;;;;;;;;;;2.80;99.90;;;;;;4934993;28;20037;-63
2022/02/04 04:05:28;;;;;;;;;;;2.80;99.90;;;;;;4936059;28;19936;-64
2022/02/04 04:07:55;;;;;;;;;;;2.80;99.90;;;;;;4936450;28;20021;-66
2022/02/04 04:10:26;;;;;;;;;;;2.80;99.90;;;;;;4936469;28;19961;-63
2022/02/04 04:12:57;;;;;;;;;;;2.80;99.90;;;;;;4932658;28;19949;-67
2022/02/04 04:15:25;;;;;;;;;;;2.80;99.90;;;;;;4934937;28;19941;-67
2022/02/04 04:17:52;;;;;;;;;;;2.80;99.90;;;;;;4934342;28;19978;-64
2022/02/04 04:20:20;;;;;;;;;;;2.90;99.90;;;;;;4934548;28;19931;-69
2022/02/04 04:22:47;;;;;;;;;;;2.90;99.90;;;;;;4931726;28;20025;-63
2022/02/04 04:25:14;;;;;;;;;;;2.90;99.90;;;;;;4934612;28;19941;-67
2022/02/04 04:27:42;;;;;;;;;;;2.90;99.90;;;;;;4933147;28;19930;-66
2022/02/04 04:30:10;;;;;;;;;;;2.90;99.90;;;;;;4935952;28;19985;-64
2022/02/04 04:32:37;;;;;;;;;;;2.90;99.90;;;;;;4935036;28;20432;-67
2022/02/04 04:35:04;;;;;;;;;;;2.90;99.90;;;;;;4932969;28;20575;-64
2022/02/04 04:37:31;;;;;;;;;;;2.90;99.90;;;;;;4933078;28;20012;-63
2022/02/04 04:42:43;;;;;;;;;;;2.90;99.90;;;;;;4932479;28;19930;-69
2022/02/04 04:46:11;;;;;;;;;;;2.90;99.90;;;;;;4936444;28;20488;-63
2022/02/04 05:29:34;;;;;;;;;;;3.00;99.90;;;;;;4931144;28;20017;-72
2022/02/04 05:32:01;;;;;;;;;;;3.00;99.90;;;;;;4940084;28;20117;-66
2022/02/04 05:34:28;;;;;;;;;;;3.00;99.90;;;;;;4935290;28;19965;-67
2022/02/04 05:37:03;;;;;;;;;;;3.00;99.90;;;;;;4935888;28;20052;-64
2022/02/04 05:39:36;;;;;;;;;;;3.00;99.90;;;;;;4934739;28;20379;-67
2022/02/04 05:42:05;;;;;;;;;;;3.00;99.90;;;;;;4937628;28;19930;-63
2022/02/04 05:44:59;;;;;;;;;;;3.00;99.90;;;;;;2593262;28;10002026;-67
2022/02/04 05:47:25;;;;;;;;;;;3.00;99.90;;;;;;3915787;28;10002027;-71
2022/02/04 05:52:57;;;;;;;;;;;3.00;99.90;;;;;;4936724;28;19930;-70
2022/02/04 05:58:15;;;;;;;;;;;3.00;99.90;;;;;;4936029;28;19934;-64
2022/02/04 06:00:55;;;;;;;;;;;3.00;99.90;;;;;;4937325;28;19929;-68
2022/02/04 06:09:06;;;;;;;;;;;3.00;99.90;;;;;;4938179;28;19930;-64
2022/02/04 06:22:19;;;;;;;;;;;3.00;99.90;;;;;;4936216;28;20126;-66
2022/02/04 06:24:47;;;;;;;;;;;3.00;99.90;;;;;;4933890;28;20024;-68
2022/02/04 06:27:15;;;;;;;;;;;3.00;99.90;;;;;;4934804;28;19941;-67
2022/02/04 06:29:42;;;;;;;;;;;3.00;99.90;;;;;;4937750;28;20037;-72
2022/02/04 06:32:09;;;;;;;;;;;3.00;99.90;;;;;;4961252;28;20300;-66
2022/02/04 06:34:37;;;;;;;;;;;3.00;99.90;;;;;;4938250;28;20104;-68
2022/02/04 06:37:04;;;;;;;;;;;3.00;99.90;;;;;;4929528;28;19937;-66
2022/02/04 06:39:31;;;;;;;;;;;3.00;99.90;;;;;;4935906;28;20219;-68
2022/02/04 06:41:58;;;;;;;;;;;3.00;99.90;;;;;;4959414;28;19937;-66
2022/02/04 06:44:25;;;;;;;;;;;3.00;99.90;;;;;;4935812;28;20046;-70
2022/02/04 06:46:52;;;;;;;;;;;3.00;99.90;;;;;;4932342;28;19930;-68
2022/02/04 06:49:19;;;;;;;;;;;3.00;99.90;;;;;;4933632;28;20016;-69
2022/02/04 06:51:45;;;;;;;;;;;3.00;99.90;;;;;;4934489;28;19937;-69
2022/02/04 06:54:12;;;;;;;;;;;3.10;99.90;;;;;;4934280;28;20057;-65
2022/02/04 06:56:39;;;;;;;;;;;3.00;99.90;;;;;;4933028;28;20333;-67
2022/02/04 06:59:06;;;;;;;;;;;3.00;99.90;;;;;;4934419;28;19931;-68
2022/02/04 07:01:33;;;;;;;;;;;3.00;99.90;;;;;;4934076;28;19986;-64
2022/02/04 07:04:04;;;;;;;;;;;3.00;99.90;;;;;;4936060;28;19999;-64
2022/02/04 07:06:34;;;;;;;;;;;3.10;99.90;;;;;;4933944;28;19930;-67
2022/02/04 07:14:27;;;;;;;;;;;3.10;99.90;;;;;;4933366;28;20046;-65
2022/02/04 07:22:06;;;;;;;;;;;3.20;99.90;;;;;;4934411;28;20017;-71
2022/02/04 07:24:33;;;;;;;;;;;3.20;99.90;;;;;;4935547;28;20004;-66
2022/02/04 07:27:00;;;;;;;;;;;3.20;99.90;;;;;;4929839;28;19985;-68
2022/02/04 07:29:28;;;;;;;;;;;3.20;99.90;;;;;;4935434;28;19931;-67
2022/02/04 07:31:56;;;;;;;;;;;3.20;99.90;;;;;;4932265;28;20040;-64
2022/02/04 07:34:39;;;;;;;;;;;3.20;99.90;;;;;;4933987;28;19930;-67
2022/02/04 07:42:37;;;;;;;;;;;3.30;99.90;;;;;;4880768;28;21239;-63
2022/02/04 07:45:06;;;;;;;;;;;3.30;99.90;;;;;;3544403;28;10001522;-68
2022/02/04 07:47:33;;;;;;;;;;;3.30;99.90;;;;;;1699912;28;10002039;-67
2022/02/04 07:50:00;;;;;;;;;;;3.30;99.90;;;;;;4934508;28;20148;-65
2022/02/04 07:52:26;;;;;;;;;;;3.30;99.90;;;;;;4933867;28;20577;-68
2022/02/04 07:54:53;;;;;;;;;;;3.30;99.90;;;;;;4931640;28;21353;-67
2022/02/04 07:57:20;;;;;;;;;;;3.40;99.90;;;;;;4932185;28;19941;-66
2022/02/04 07:59:47;;;;;;;;;;;3.40;99.90;;;;;;4935587;28;20452;-70
2022/02/04 08:02:14;;;;;;;;;;;3.40;99.90;;;;;;4933272;28;20585;-70
2022/02/04 08:04:44;;;;;;;;;;;3.40;99.90;;;;;;4931010;28;19937;-70
2022/02/04 08:07:15;;;;;;;;;;;3.40;99.90;;;;;;4933372;28;19930;-71
2022/02/04 08:12:48;;;;;;;;;;;3.50;99.90;;;;;;4932590;28;19937;-70
2022/02/04 08:18:15;;;;;;;;;;;3.50;99.90;;;;;;4930360;28;19937;-66
2022/02/04 08:39:33;;;;;;;;;;;3.70;99.90;;;;;;4932419;28;20108;-67
2022/02/04 08:47:57;;;;;;;;;;;3.80;99.90;;;;;;4937778;28;19992;-71
2022/02/04 08:53:47;;;;;;;;;;;3.90;99.90;;;;;;4920020;29;19934;-68
2022/02/04 08:56:19;;;;;;;;;;;3.90;99.90;;;;;;4920837;28;20081;-66
2022/02/04 08:58:58;;;;;;;;;;;4.00;99.90;;;;;;4917883;28;20017;-71
2022/02/04 09:01:31;;;;;;;;;;;4.00;99.90;;;;;;4937781;28;20065;-70
2022/02/04 09:04:13;;;;;;;;;;;4.00;99.90;;;;;;4936105;28;20021;-66
2022/02/04 09:06:44;;;;;;;;;;;4.10;99.90;;;;;;4937758;28;19977;-69
2022/02/04 09:09:25;;;;;;;;;;;4.10;99.90;;;;;;4932735;28;19930;-71
2022/02/04 09:12:02;;;;;;;;;;;4.20;99.90;;;;;;4935369;28;19936;-68
2022/02/04 09:19:59;;;;;;;;;;;4.30;99.90;;;;;;4934632;28;20009;-68
2022/02/04 09:22:43;;;;;;;;;;;4.30;99.90;;;;;;4935513;28;20056;-70
2022/02/04 09:25:10;;;;;;;;;;;4.30;99.90;;;;;;4935086;28;20021;-70
2022/02/04 09:27:37;;;;;;;;;;;4.40;99.90;;;;;;4931007;28;20354;-67
2022/02/04 09:30:06;;;;;;;;;;;4.40;99.90;;;;;;4935241;28;20428;-64
2022/02/04 09:32:36;;;;;;;;;;;4.50;99.90;;;;;;4936357;28;19930;-70
2022/02/04 09:35:03;;;;;;;;;;;4.40;99.90;;;;;;4935376;28;19930;-68
2022/02/04 09:37:30;;;;;;;;;;;4.50;99.90;;;;;;4934418;28;19961;-70
2022/02/04 09:39:57;;;;;;;;;;;4.50;99.90;;;;;;4937687;28;19936;-69
2022/02/04 09:42:25;;;;;;;;;;;4.50;99.90;;;;;;4902251;28;19936;-71
2022/02/04 09:45:07;;;;;;;;;;;4.50;99.90;;;;;;2354295;28;10022019;-68
2022/02/04 09:47:36;;;;;;;;;;;4.50;99.90;;;;;;3914561;28;10001515;-63
2022/02/04 09:50:11;;;;;;;;;;;4.60;99.90;;;;;;4937710;28;19967;-66
2022/02/04 10:07:14;;;;;;;;;;;4.70;99.90;;;;;;4934240;28;19978;-69
2022/02/04 10:13:15;;;;;;;;;;;4.80;99.90;;;;;;4920521;28;19930;-71
2022/02/04 10:21:03;;;;;;;;;;;4.90;99.90;;;;;;4932785;28;19930;-68
2022/02/04 10:23:43;;;;;;;;;;;4.90;99.90;;;;;;4934771;28;20409;-70
2022/02/04 10:26:11;;;;;;;;;;;4.90;99.90;;;;;;4933858;28;20008;-69
2022/02/04 10:28:40;;;;;;;;;;;5.00;99.90;;;;;;4935462;28;20017;-67
2022/02/04 10:31:15;;;;;;;;;;;5.00;99.90;;;;;;4931797;28;20412;-66
2022/02/04 10:33:59;;;;;;;;;;;5.00;99.90;;;;;;4931904;28;19967;-72
2022/02/04 10:36:35;;;;;;;;;;;5.00;99.90;;;;;;4935759;28;21108;-65
2022/02/04 10:39:21;;;;;;;;;;;5.00;99.90;;;;;;4930086;28;20124;-68
2022/02/04 10:42:16;;;;;;;;;;;5.00;99.90;;;;;;4932312;28;19930;-70
2022/02/04 10:45:07;;;;;;;;;;;5.00;99.90;;;;;;4935611;28;20061;-65
2022/02/04 10:58:18;;;;;;;;;;;5.10;99.90;;;;;;4930871;28;20021;-68
2022/02/04 11:01:09;;;;;;;;;;;5.20;99.90;;;;;;4930282;28;19934;-64
2022/02/04 11:03:41;;;;;;;;;;;5.20;99.90;;;;;;4930440;28;20505;-68
2022/02/04 11:06:29;;;;;;;;;;;5.20;99.90;;;;;;4931251;28;19930;-70
2022/02/04 11:36:24;;;;;;;;;;;5.10;99.90;;;;;;4930333;28;20349;-62
2022/02/04 11:43:46;;;;;;;;;;;5.00;99.90;;;;;;4927783;28;20344;-71
2022/02/04 11:51:31;;;;;;;;;;;4.80;99.90;;;;;;4923150;28;19941;-68
2022/02/04 11:54:30;;;;;;;;;;;4.70;99.90;;;;;;4926838;28;19937;-76
2022/02/04 11:57:03;;;;;;;;;;;4.60;99.90;;;;;;4926577;28;19967;-65
2022/02/04 11:59:32;;;;;;;;;;;4.60;99.90;;;;;;4944282;28;19936;-62
2022/02/04 12:01:59;;;;;;;;;;;4.50;99.90;;;;;;4938642;28;19934;-63
2022/02/04 12:04:26;;;;;;;;;;;4.50;99.90;;;;;;4941145;28;19926;-64
2022/02/04 12:06:54;;;;;;;;;;;4.50;99.90;;;;;;4939089;28;20544;-66
2022/02/04 12:09:33;;;;;;;;;;;4.50;99.90;;;;;;4940214;28;20009;-65
2022/02/04 12:12:00;;;;;;;;;;;4.60;99.90;;;;;;4938911;28;19962;-64
2022/02/04 12:14:31;;;;;;;;;;;4.60;99.90;;;;;;4946360;28;20313;-69
2022/02/04 12:17:06;;;;;;;;;;;4.60;99.90;;;;;;4943070;28;20024;-63
2022/02/04 12:19:43;;;;;;;;;;;4.60;99.90;;;;;;4943174;28;20392;-68
2022/02/04 12:22:10;;;;;;;;;;;4.50;99.90;;;;;;4945153;28;19950;-70
2022/02/04 12:24:39;;;;;;;;;;;4.60;99.90;;;;;;4944642;28;20025;-67
2022/02/04 12:27:24;;;;;;;;;;;4.60;99.90;;;;;;4939255;28;20447;-67
2022/02/04 12:29:52;;;;;;;;;;;4.60;99.90;;;;;;4941705;28;19952;-67
2022/02/04 12:32:19;;;;;;;;;;;4.60;99.90;;;;;;4942755;28;20017;-64
2022/02/04 12:34:48;;;;;;;;;;;4.60;99.90;;;;;;4957814;28;19973;-72
2022/02/04 12:37:16;;;;;;;;;;;4.60;99.90;;;;;;4936194;28;20020;-68
2022/02/04 12:39:43;;;;;;;;;;;4.70;99.90;;;;;;4937649;28;19961;-68
2022/02/04 12:42:10;;;;;;;;;;;4.70;99.90;;;;;;4942916;28;20320;-63
2022/02/04 12:44:39;;;;;;;;;;;4.70;99.90;;;;;;4940351;28;19923;-63
2022/02/04 12:47:08;;;;;;;;;;;4.70;99.90;;;;;;4938142;28;19937;-69
2022/02/04 12:49:44;;;;;;;;;;;4.80;99.90;;;;;;4940328;28;20448;-69
2022/02/04 12:54:48;;;;;;;;;;;4.80;99.90;;;;;;4939190;28;19966;-64
2022/02/04 13:07:52;;;;;;;;;;;4.70;99.90;;;;;;4942157;28;20273;-63
2022/02/04 13:10:21;;;;;;;;;;;4.70;99.90;;;;;;4935204;28;19981;-66
2022/02/04 13:12:49;;;;;;;;;;;4.70;99.90;;;;;;4938830;28;20540;-65
2022/02/04 13:15:16;;;;;;;;;;;4.70;99.90;;;;;;4934636;28;20042;-72
2022/02/04 13:17:44;;;;;;;;;;;4.70;99.90;;;;;;4932719;28;19931;-69
2022/02/04 13:20:11;;;;;;;;;;;4.80;99.90;;;;;;4932131;28;19926;-71
2022/02/04 13:22:38;;;;;;;;;;;4.80;99.90;;;;;;4933657;28;20293;-67
2022/02/04 13:25:05;;;;;;;;;;;4.80;99.90;;;;;;4925325;28;19930;-67
2022/02/04 13:27:33;;;;;;;;;;;4.80;99.90;;;;;;4931206;28;20479;-65
2022/02/04 13:29:59;;;;;;;;;;;4.80;99.90;;;;;;4933687;28;20032;-70
2022/02/04 13:32:26;;;;;;;;;;;4.80;99.90;;;;;;4933739;28;19930;-65
2022/02/04 13:34:53;;;;;;;;;;;4.70;99.90;;;;;;4933154;28;20024;-67
2022/02/04 13:37:29;;;;;;;;;;;4.70;99.90;;;;;;4933248;28;20653;-69
2022/02/04 13:40:05;;;;;;;;;;;4.70;99.90;;;;;;4932830;28;20646;-65
2022/02/04 13:42:44;;;;;;;;;;;4.70;99.90;;;;;;4892056;28;20081;-67
2022/02/04 13:45:27;;;;;;;;;;;4.60;99.90;;;;;;3055025;28;10001290;-69
2022/02/04 13:48:04;;;;;;;;;;;4.60;99.90;;;;;;2551265;28;10002157;-69
2022/02/04 13:53:16;;;;;;;;;;;4.60;99.90;;;;;;4937602;28;20417;-69
2022/02/04 13:58:26;;;;;;;;;;;4.60;99.90;;;;;;4938393;28;19937;-75
2022/02/04 14:01:07;;;;;;;;;;;4.60;99.90;;;;;;4934614;28;19931;-73
2022/02/04 14:03:41;;;;;;;;;;;4.60;99.90;;;;;;4940948;28;19966;-67
2022/02/04 14:06:13;;;;;;;;;;;4.60;99.90;;;;;;4936815;28;20090;-64
2022/02/04 14:11:31;;;;;;;;;;;4.60;99.90;;;;;;4935768;28;20369;-66
2022/02/04 14:14:11;;;;;;;;;;;4.50;99.90;;;;;;4937156;28;19942;-69
2022/02/04 14:16:39;;;;;;;;;;;4.50;99.90;;;;;;4932227;28;19930;-70
2022/02/04 14:19:06;;;;;;;;;;;4.50;99.90;;;;;;4933010;28;19949;-69
2022/02/04 14:21:33;;;;;;;;;;;4.50;99.90;;;;;;4934271;28;20384;-64
2022/02/04 14:24:06;;;;;;;;;;;4.50;99.90;;;;;;4936337;28;20052;-67
2022/02/04 14:26:39;;;;;;;;;;;4.50;99.90;;;;;;4935239;28;20017;-69
2022/02/04 14:31:55;;;;;;;;;;;4.50;99.90;;;;;;4934199;28;19930;-72
2022/02/04 15:01:23;;;;;;;;;;;4.30;99.90;;;;;;4935403;28;20898;-66
2022/02/04 15:04:10;;;;;;;;;;;4.30;99.90;;;;;;4938670;28;20044;-71
2022/02/04 15:06:39;;;;;;;;;;;4.30;99.90;;;;;;4937102;28;19989;-70
2022/02/04 15:09:08;;;;;;;;;;;4.30;99.90;;;;;;4935362;28;20013;-73
2022/02/04 15:11:36;;;;;;;;;;;4.30;99.90;;;;;;4936232;28;19965;-73
2022/02/04 15:14:04;;;;;;;;;;;4.30;99.90;;;;;;4935928;28;20022;-71
2022/02/04 15:16:31;;;;;;;;;;;4.20;99.90;;;;;;4936152;28;19970;-69
2022/02/04 15:18:59;;;;;;;;;;;4.20;99.90;;;;;;4937650;28;20021;-65
2022/02/04 15:21:27;;;;;;;;;;;4.20;99.90;;;;;;4937179;28;19936;-73
2022/02/04 15:23:54;;;;;;;;;;;4.20;99.90;;;;;;4934313;28;20371;-66
2022/02/04 15:26:23;;;;;;;;;;;4.20;99.90;;;;;;4936098;28;19930;-63
2022/02/04 15:29:01;;;;;;;;;;;4.20;99.90;;;;;;4932590;28;20399;-68
2022/02/04 15:33:54;;;;;;;;;;;4.20;99.90;;;;;;4937325;28;20029;-64
2022/02/04 15:36:28;;;;;;;;;;;4.20;99.90;;;;;;4935331;28;20017;-64
2022/02/04 15:38:56;;;;;;;;;;;4.20;99.90;;;;;;4932450;28;20522;-69
2022/02/04 15:41:25;;;;;;;;;;;4.20;99.90;;;;;;4934369;28;20016;-65
2022/02/04 15:43:56;;;;;;;;;;;4.10;99.90;;;;;;4467446;28;10000272;-64
2022/02/04 15:49:24;;;;;;;;;;;4.10;99.90;;;;;;4933160;28;20020;-68
2022/02/04 16:04:47;;;;;;;;;;;4.10;99.90;;;;;;4931783;28;19977;-67
2022/02/04 16:07:16;;;;;;;;;;;4.10;99.90;;;;;;4935361;28;20528;-67
2022/02/04 16:09:48;;;;;;;;;;;4.10;99.90;;;;;;4932738;28;21395;-65
2022/02/04 16:12:29;;;;;;;;;;;4.20;99.90;;;;;;4934043;28;19937;-68
2022/02/04 16:15:05;;;;;;;;;;;4.10;99.90;;;;;;4930553;28;19961;-68
2022/02/04 16:17:36;;;;;;;;;;;4.10;99.90;;;;;;4933724;28;20366;-71
2022/02/04 16:20:20;;;;;;;;;;;4.20;99.90;;;;;;4933252;28;19937;-65
2022/02/04 16:23:06;;;;;;;;;;;4.20;99.90;;;;;;4932558;28;19927;-69
2022/02/04 16:25:42;;;;;;;;;;;4.20;99.90;;;;;;4933346;28;19930;-70
2022/02/04 16:30:58;;;;;;;;;;;4.20;99.90;;;;;;4932130;28;20044;-71
2022/02/04 16:33:25;;;;;;;;;;;4.20;99.90;;;;;;4931552;28;20034;-69
2022/02/04 16:35:52;;;;;;;;;;;4.20;99.90;;;;;;4933464;28;19926;-68
2022/02/04 16:38:20;;;;;;;;;;;4.20;99.90;;;;;;4930430;28;19934;-67
2022/02/04 16:40:53;;;;;;;;;;;4.20;99.90;;;;;;4931351;28;21345;-65
2022/02/04 16:43:20;;;;;;;;;;;4.20;99.90;;;;;;4931020;28;19937;-70
2022/02/04 16:45:46;;;;;;;;;;;4.20;99.90;;;;;;4932031;28;19990;-67
2022/02/04 16:48:13;;;;;;;;;;;4.20;99.90;;;;;;4930596;28;20085;-69
2022/02/04 16:50:43;;;;;;;;;;;4.20;99.90;;;;;;4933649;28;19940;-71
2022/02/04 16:53:10;;;;;;;;;;;4.20;99.90;;;;;;4929619;28;19936;-67
2022/02/04 16:55:37;;;;;;;;;;;4.30;99.90;;;;;;4947488;28;19930;-69
2022/02/04 16:58:03;;;;;;;;;;;4.30;99.90;;;;;;4931427;28;20017;-70
2022/02/04 17:00:30;;;;;;;;;;;4.30;99.90;;;;;;4930903;28;19930;-67
2022/02/04 17:03:00;;;;;;;;;;;4.30;99.90;;;;;;4929493;28;19938;-70
2022/02/04 17:05:36;;;;;;;;;;;4.30;99.90;;;;;;4938429;28;20503;-63
2022/02/04 17:08:07;;;;;;;;;;;4.30;99.90;;;;;;4936176;28;19969;-70
2022/02/04 17:10:39;;;;;;;;;;;4.30;99.90;;;;;;4939159;28;20064;-64
2022/02/04 17:13:06;;;;;;;;;;;4.30;99.90;;;;;;4934783;28;19940;-67
2022/02/04 17:15:34;;;;;;;;;;;4.30;99.90;;;;;;4938899;28;19930;-70
2022/02/04 17:18:02;;;;;;;;;;;4.30;99.90;;;;;;4935711;28;19962;-66
2022/02/04 17:20:29;;;;;;;;;;;4.30;99.90;;;;;;4939039;28;20808;-68
2022/02/04 17:22:57;;;;;;;;;;;4.30;99.90;;;;;;4931180;28;20024;-65
2022/02/04 17:25:28;;;;;;;;;;;4.30;99.90;;;;;;4937694;28;19930;-67
2022/02/04 17:27:56;;;;;;;;;;;4.30;99.90;;;;;;4936871;28;19930;-64
2022/02/04 17:30:24;;;;;;;;;;;4.30;99.90;;;;;;4939057;28;19937;-69
2022/02/04 17:32:51;;;;;;;;;;;4.30;99.90;;;;;;4934150;28;19930;-69
2022/02/04 17:35:19;;;;;;;;;;;4.30;99.90;;;;;;4936387;28;19930;-66
2022/02/04 17:37:46;;;;;;;;;;;4.30;99.90;;;;;;4931742;28;20407;-70
2022/02/04 17:40:14;;;;;;;;;;;4.30;99.90;;;;;;4937800;28;20581;-70
2022/02/04 17:42:43;;;;;;;;;;;4.30;99.90;;;;;;4934284;28;20044;-65
2022/02/04 17:45:21;;;;;;;;;;;4.30;99.90;;;;;;4726935;28;9999813;-68
2022/02/04 17:47:57;;;;;;;;;;;4.30;99.90;;;;;;679027;28;10002019;-68
2022/02/04 17:50:31;;;;;;;;;;;4.30;99.90;;;;;;4935453;28;20025;-67
2022/02/04 17:53:07;;;;;;;;;;;4.30;99.90;;;;;;4931217;28;19931;-70
2022/02/04 17:55:44;;;;;;;;;;;4.30;99.90;;;;;;4935511;28;19930;-68
2022/02/04 17:58:23;;;;;;;;;;;4.30;99.90;;;;;;4935189;28;19926;-68
2022/02/04 18:05:17;;;;;;;;;;;4.30;99.90;;;;;;4937054;28;20288;-67
2022/02/04 18:09:08;;;;;;;;;;;4.30;99.90;;;;;;4936803;28;20356;-65
2022/02/04 18:11:35;;;;;;;;;;;4.30;99.90;;;;;;4935196;28;19922;-66
2022/02/04 18:14:02;;;;;;;;;;;4.30;99.90;;;;;;4934535;28;19961;-73
2022/02/04 18:16:29;;;;;;;;;;;4.30;99.90;;;;;;4937031;28;19926;-65
2022/02/04 18:18:56;;;;;;;;;;;4.30;99.90;;;;;;4935555;28;20017;-68
2022/02/04 18:21:23;;;;;;;;;;;4.30;99.90;;;;;;4934911;28;19936;-67
2022/02/04 18:23:50;;;;;;;;;;;4.30;99.90;;;;;;4933800;28;19930;-69
2022/02/04 18:26:17;;;;;;;;;;;4.30;99.90;;;;;;4936748;28;19931;-64
2022/02/04 18:28:43;;;;;;;;;;;4.30;99.90;;;;;;4934873;28;19999;-66
2022/02/04 18:31:10;;;;;;;;;;;4.30;99.90;;;;;;4931419;28;20637;-65
2022/02/04 18:33:37;;;;;;;;;;;4.40;99.90;;;;;;4933692;28;19989;-66
2022/02/04 18:36:04;;;;;;;;;;;4.40;99.90;;;;;;4929215;28;20038;-68
2022/02/04 18:43:55;;;;;;;;;;;4.40;99.90;;;;;;4932636;28;19934;-71
2022/02/04 18:49:16;;;;;;;;;;;4.40;99.90;;;;;;4934183;28;20009;-69
2022/02/04 18:52:08;;;;;;;;;;;4.40;99.90;;;;;;4936968;28;20033;-67
2022/02/04 18:59:39;;;;;;;;;;;4.40;99.90;;;;;;4933537;28;20707;-68
2022/02/04 19:02:06;;;;;;;;;;;4.40;99.90;;;;;;4936873;28;19937;-67
2022/02/04 19:04:40;;;;;;;;;;;4.40;99.90;;;;;;4935728;28;20025;-70
2022/02/04 19:07:16;;;;;;;;;;;4.40;99.90;;;;;;4934695;28;19934;-63
2022/02/04 19:09:45;;;;;;;;;;;4.40;99.90;;;;;;4935591;28;19993;-69
2022/02/04 19:12:16;;;;;;;;;;;4.40;99.90;;;;;;4932153;28;19936;-70
2022/02/04 19:14:53;;;;;;;;;;;4.40;99.90;;;;;;4930152;28;19985;-66
2022/02/04 19:20:03;;;;;;;;;;;4.40;99.90;;;;;;4927630;28;19952;-67
2022/02/04 19:22:34;;;;;;;;;;;4.40;99.90;;;;;;4932213;28;20036;-67
2022/02/04 19:25:04;;;;;;;;;;;4.40;99.90;;;;;;4926398;28;20127;-69
2022/02/04 19:27:31;;;;;;;;;;;4.40;99.90;;;;;;4932435;28;19952;-70
2022/02/04 19:30:01;;;;;;;;;;;4.40;99.90;;;;;;4932182;28;19930;-69
2022/02/04 19:32:28;;;;;;;;;;;4.50;99.90;;;;;;4933758;28;20275;-73
2022/02/04 19:34:55;;;;;;;;;;;4.50;99.90;;;;;;4930822;28;20309;-69
2022/02/04 19:37:23;;;;;;;;;;;4.40;99.90;;;;;;4931161;28;20006;-65
2022/02/04 19:39:50;;;;;;;;;;;4.40;99.90;;;;;;4930810;28;19950;-63
2022/02/04 19:42:30;;;;;;;;;;;4.50;99.90;;;;;;4935143;28;19981;-69
2022/02/04 19:45:04;;;;;;;;;;;4.50;99.90;;;;;;4888018;28;20509;-64
2022/02/04 19:47:57;;;;;;;;;;;4.50;99.90;;;;;;1741089;28;10021925;-70
2022/02/04 20:25:22;;;;;;;;;;;4.50;99.90;;;;;;4927265;28;19942;-68
2022/02/04 20:27:51;;;;;;;;;;;4.50;99.90;;;;;;4929008;28;21422;-70
2022/02/04 20:30:18;;;;;;;;;;;4.50;99.90;;;;;;4926241;28;20056;-67
2022/02/04 20:32:45;;;;;;;;;;;4.50;99.90;;;;;;4929492;28;19936;-67
2022/02/04 20:35:12;;;;;;;;;;;4.50;99.90;;;;;;4927537;28;19930;-67
2022/02/04 20:37:38;;;;;;;;;;;4.50;99.90;;;;;;4935667;28;19942;-66
2022/02/04 20:40:18;;;;;;;;;;;4.50;99.90;;;;;;4932836;28;20000;-67
2022/02/04 20:42:45;;;;;;;;;;;4.50;99.90;;;;;;4936718;28;19950;-66
2022/02/04 20:45:12;;;;;;;;;;;4.50;99.90;;;;;;4935731;28;19958;-65
2022/02/04 20:47:42;;;;;;;;;;;4.50;99.90;;;;;;4936036;28;19930;-67
2022/02/04 20:50:09;;;;;;;;;;;4.60;99.90;;;;;;4937962;28;19930;-66
2022/02/04 20:52:37;;;;;;;;;;;4.50;99.90;;;;;;4941540;28;19974;-69
2022/02/04 20:55:07;;;;;;;;;;;4.60;99.90;;;;;;4936602;28;20692;-68
2022/02/04 20:57:36;;;;;;;;;;;4.60;99.90;;;;;;4940423;28;20056;-68
2022/02/04 21:00:05;;;;;;;;;;;4.60;99.90;;;;;;4937474;28;19965;-68
2022/02/04 21:02:32;;;;;;;;;;;4.60;99.90;;;;;;4939823;28;20115;-64
2022/02/04 21:04:58;;;;;;;;;;;4.60;99.90;;;;;;4934648;28;20012;-64
2022/02/04 21:15:42;;;;;;;;;;;4.50;99.90;;;;;;4939667;28;19930;-69
2022/02/04 21:18:11;;;;;;;;;;;4.60;99.90;;;;;;4941374;28;20054;-63
2022/02/04 21:20:39;;;;;;;;;;;4.60;99.90;;;;;;4937864;28;20375;-67
2022/02/04 21:23:12;;;;;;;;;;;4.60;99.90;;;;;;4937781;28;20912;-65
2022/02/04 21:25:39;;;;;;;;;;;4.60;99.90;;;;;;4936499;28;19940;-63
2022/02/04 21:28:09;;;;;;;;;;;4.60;99.90;;;;;;4942059;28;19937;-66
2022/02/04 21:30:37;;;;;;;;;;;4.60;99.90;;;;;;4936988;28;19960;-66
2022/02/04 21:33:09;;;;;;;;;;;4.60;99.90;;;;;;4935645;28;19936;-68
2022/02/04 21:38:21;;;;;;;;;;;4.60;99.90;;;;;;4937706;28;19931;-64
2022/02/04 21:40:48;;;;;;;;;;;4.60;99.90;;;;;;4936647;28;19934;-64
2022/02/04 21:43:17;;;;;;;;;;;4.60;99.90;;;;;;4879362;28;20168;-64
2022/02/04 21:46:09;;;;;;;;;;;4.60;99.90;;;;;;1950361;28;10022501;-65
2022/02/04 21:48:44;;;;;;;;;;;4.60;99.90;;;;;;4598025;28;10000794;-65
2022/02/04 21:51:11;;;;;;;;;;;4.60;99.90;;;;;;4934504;28;19930;-66
2022/02/04 21:53:38;;;;;;;;;;;4.60;99.90;;;;;;4938964;28;19960;-66
2022/02/04 21:56:08;;;;;;;;;;;4.60;99.90;;;;;;4932639;28;19973;-65
2022/02/04 21:58:44;;;;;;;;;;;4.60;99.90;;;;;;4935036;28;19964;-67
2022/02/04 22:01:11;;;;;;;;;;;4.60;99.90;;;;;;4932068;28;20065;-68
2022/02/04 22:03:38;;;;;;;;;;;4.60;99.90;;;;;;4937915;28;20012;-67
2022/02/04 22:06:06;;;;;;;;;;;4.60;99.90;;;;;;4938073;28;20670;-64